AirNav   Duncan Aviation - Near you to keep you flying
 
 1866 users online  

6M8 Marked Tree Municipal Airport
Marked Tree, Arkansas, USA

GOING TO MARKED TREE?


FAA INFORMATION EFFECTIVE 26 JANUARY 2023

Location

FAA Identifier: 6M8
Lat/Long: 35-31-59.1250N 090-24-00.3200W
35-31.985417N 090-24.005333W
35.5330903,-90.4000889
(estimated)
Elevation: 219 ft. / 66.8 m (surveyed)
Variation: 02E (1985)
From city: 1 mile E of MARKED TREE, AR
Time zone: UTC -6 (UTC -5 during Daylight Saving Time)
Zip code: 72365

Airport Operations

Airport use: Open to the public
Activation date: 03/1970
Control tower: no
ARTCC: MEMPHIS CENTER
FSS: JONESBORO FLIGHT SERVICE STATION
NOTAMs facility: JBR (NOTAM-D service available)
Attendance: IREG
FOR SVC AFT HRS CALL 870-358-2024.
Wind indicator: lighted
Segmented circle: yes
Lights: ACTVT MIRL RY 18/36 - CTAF.
Beacon: white-green (lighted land airport)
Operates sunset to sunrise.

Airport Communications

CTAF/UNICOM: 122.8

Nearby radio navigation aids

VOR radial/distance  VOR name  Freq  Var
GQEr015/11.8GILMORE VOR/DME113.0004E
JBRr156/22.5JONESBORO VOR/DME108.6000W
MEMr326/37.2MEMPHIS VORTAC117.5001E

Airport Services

Parking: hangars and tiedowns
Airframe service: NONE
Powerplant service: NONE

Runway Information

Runway 18/36

Dimensions: 3200 x 60 ft. / 975 x 18 m
Surface: asphalt, in fair condition
Weight bearing capacity: 
Single wheel: 8.0
Runway edge lights: medium intensity
Runway edge markings: RWY MARKINGS FADED.
RUNWAY 18  RUNWAY 36
Latitude: 35-32.249167N35-31.721667N
Longitude: 090-24.004500W090-24.006167W
Elevation: 219.0 ft.219.0 ft.
Traffic pattern: leftleft
Markings: nonprecision, in poor conditionnonprecision, in poor condition
Visual slope indicator: 2-light PAPI on left (3.00 degrees glide path)2-light PAPI on left (3.00 degrees glide path)
Touchdown point: yes, no lightsyes, no lights
Obstructions: none15 ft. road, 500 ft. from runway, 20:1 slope to clear

Airport Ownership and Management from official FAA records

Ownership: Publicly-owned
Owner: CITY OF MARKED TREE
1 ELM STREET
MARKED TREE, AR 72365
Phone 870-358-3216
Manager: WAYNE HENDRIX
1 ELM STREET
MARKED TREE, AR 72365
Phone (870) 375-3025

Airport Operational Statistics

Aircraft based on the field: 5
Single engine airplanes: 5
    
Aircraft operations: avg 65/day *
84% local general aviation
15% transient general aviation
<1% military
* for 12-month period ending 30 September 2020

Additional Remarks

NUMEROUS AGRICULTURAL ACFT OPNS FM FEB-NOV 500 FT AGL AND BELOW.
FOR CD CTC MEMPHIS APCH AT 901-842-8457.

Instrument Procedures

There are no published instrument procedures at 6M8.

Some nearby airports with instrument procedures:

7M4 - Osceola Municipal Airport (21 nm NE)
KJBR - Jonesboro Municipal Airport (22 nm NW)
KMXA - Manila Municipal Airport (25 nm NE)
KAWM - West Memphis Municipal Airport (25 nm S)
M01 - General Dewitt Spain Airport (26 nm SE)
 
Loc | Ops | Rwys | IFR | FBO | Links
Com | Nav | Svcs | Stats | Notes
Area around 6M8 (Marked Tree Municipal Airport)
 
Road maps at: MapQuest Bing Google
 
Aerial photo
WARNING: Photo may not be current or correct
Aerial photo of 6M8 (Marked Tree Municipal Airport)
Photo courtesy of the Arkansas Department of Aeronautics
Taken in the Spring of 2007

Do you have a better or more recent aerial photo of Marked Tree Municipal Airport that you would like to share? If so, please send us your photo.

 
Sectional chart

 
Airport distance calculator
Flying to Marked Tree Municipal Airport? Find the distance to fly.

From to 6M8

Sunrise and sunset
Times for 06-Feb-2023
 Local
(UTC-6)
 Zulu
(UTC)
Morning civil twilight06:3212:32
Sunrise06:5812:58
Sunset17:3323:33
Evening civil twilight18:0024:00

Current date and time
Zulu (UTC)  06-Feb-2023 16:45:45
Local (UTC-6)  06-Feb-2023 10:45:45
 
METAR
KJBR 
22nm NW 
061619Z AUTO 08/08 A3019 RMK AO2 T00830078 PWINO $
KAWM 
25nm S 
061553Z AUTO 15010KT 10SM CLR 11/10 A3020 RMK AO2 SLP225 T01060100
KNQA 
28nm SE 
061550Z 14005KT 10SM CLR 10/10 A3019
KMEM 
35nm SE 
061554Z 15008KT 10SM SCT250 13/10 A3021 RMK AO2 SLP229 T01330100
KHKA 
37nm NE 
061553Z AUTO 16007KT 10SM CLR 11/08 A3020 RMK AO2 SLP227 T01110078 $
KBYH 
37nm NE 
061550Z 17009KT 10SM SKC 09/05 A3021
KM19 
38nm W 
061556Z AUTO 16009KT 10SM FEW002 12/10 A3018 RMK AO2 RAB01E11 SLP217 P0000 T01170100
KM04 
40nm E 
061635Z AUTO 16008KT 10SM CLR 14/10 A3021 RMK A01
KARG 
43nm NW 
061556Z AUTO 13003KT 10SM CLR 08/08 A3018 RMK AO2 SLP224 T00780078
TAF
KJBR 
22nm NW 
061143Z 0612/0712 00000KT 2SM BR SCT002 TEMPO 0612/0614 1/2SM FG VV002 FM061600 14008KT 6SM BR SCT010 FM061800 17014G20KT P6SM SCT030 FM070000 18010KT P6SM SCT040 FM070700 19009KT P6SM BKN040
NOTAMs
Click for the latest NOTAMs
NOTAMs are issued by the DoD/FAA and will open in a separate window not controlled by AirNav.

 

 
 

Would you like to see your business listed on this page?

 If your business provides an interesting product or service to pilots, flight crews, aircraft, or users of the Marked Tree Municipal Airport, you should consider listing it here.  To start the listing process, click on the button below
 
Add a business
 

Other Pages about Marked Tree Municipal Airport

Update a link
 
Copyright © AirNav, LLC. All rights reserved. Privacy Policy  Contact